createdAt,value
2018-07-04T00:00:34.636Z,19.54
2018-07-04T00:01:34.573Z,19.53
2018-07-04T00:02:34.513Z,19.59
2018-07-04T00:03:34.454Z,19.49
2018-07-04T00:04:34.395Z,19.47
2018-07-04T00:05:34.337Z,19.42
2018-07-04T00:06:34.278Z,19.45
2018-07-04T00:07:34.217Z,19.47
2018-07-04T00:08:34.158Z,19.38
2018-07-04T00:09:34.102Z,19.41
2018-07-04T00:10:34.040Z,19.42
2018-07-04T00:11:33.980Z,19.32
2018-07-04T00:12:33.924Z,19.27
2018-07-04T00:13:33.861Z,19.35
2018-07-04T00:14:33.801Z,19.31
2018-07-04T00:15:33.742Z,19.23
2018-07-04T00:16:33.681Z,19.20
2018-07-04T00:17:33.622Z,19.23
2018-07-04T00:18:33.565Z,19.23
2018-07-04T00:19:33.506Z,19.20
2018-07-04T00:20:33.444Z,19.23
2018-07-04T00:21:33.383Z,19.23
2018-07-04T00:22:33.324Z,19.16
2018-07-04T00:23:33.264Z,19.15
2018-07-04T00:24:33.202Z,19.07
2018-07-04T00:25:33.161Z,19.07
2018-07-04T00:26:33.085Z,19.04
2018-07-04T00:27:33.026Z,18.96
2018-07-04T00:28:32.966Z,18.89
2018-07-04T00:29:32.906Z,18.83
2018-07-04T00:30:32.850Z,18.86
2018-07-04T00:31:32.789Z,18.89
2018-07-04T00:32:32.729Z,18.82
2018-07-04T00:33:32.671Z,18.79
2018-07-04T00:34:32.609Z,18.75
2018-07-04T00:35:32.548Z,18.64
2018-07-04T00:36:32.492Z,18.63
2018-07-04T00:37:32.428Z,18.66
2018-07-04T00:38:32.370Z,18.70
2018-07-04T00:39:32.308Z,18.71
2018-07-04T00:40:32.250Z,18.61
2018-07-04T00:41:32.191Z,18.63
2018-07-04T00:42:32.135Z,18.54
2018-07-04T00:43:32.073Z,18.54
2018-07-04T00:44:32.009Z,18.52
2018-07-04T00:45:31.951Z,18.51
2018-07-04T00:46:31.890Z,18.54
2018-07-04T00:47:31.832Z,18.52
2018-07-04T00:48:31.772Z,18.54
2018-07-04T00:49:31.711Z,18.46
2018-07-04T00:50:31.652Z,18.48
2018-07-04T00:51:31.591Z,18.34
2018-07-04T00:52:31.533Z,18.51
2018-07-04T00:53:31.473Z,18.38
2018-07-04T00:54:31.413Z,18.51
2018-07-04T00:55:31.352Z,18.36
2018-07-04T00:56:31.295Z,18.48
2018-07-04T00:57:31.232Z,18.46
2018-07-04T00:58:31.173Z,18.51
2018-07-04T00:59:31.111Z,18.52
2018-07-04T01:00:31.053Z,18.52
2018-07-04T01:01:30.994Z,18.56
2018-07-04T01:02:30.930Z,18.49
2018-07-04T01:03:30.875Z,18.39
2018-07-04T01:04:30.815Z,18.49
2018-07-04T01:05:30.754Z,18.54
2018-07-04T01:06:30.694Z,18.42
2018-07-04T01:07:30.632Z,18.45
2018-07-04T01:08:30.575Z,18.39
2018-07-04T01:09:30.514Z,18.39
2018-07-04T01:10:30.452Z,18.41
2018-07-04T01:11:30.395Z,18.51
2018-07-04T01:12:30.336Z,18.54
2018-07-04T01:13:30.275Z,18.52
2018-07-04T01:14:30.216Z,18.66
2018-07-04T01:15:30.157Z,18.63
2018-07-04T01:16:30.095Z,18.75
2018-07-04T01:17:30.033Z,18.83
2018-07-04T01:18:29.973Z,18.79
2018-07-04T01:19:29.911Z,18.71
2018-07-04T01:20:29.855Z,18.74
2018-07-04T01:21:29.794Z,18.75
2018-07-04T01:22:29.732Z,18.78
2018-07-04T01:23:29.674Z,18.78
2018-07-04T01:24:29.613Z,18.81
2018-07-04T01:25:29.553Z,18.81
2018-07-04T01:26:29.492Z,18.79
2018-07-04T01:27:29.432Z,18.81
2018-07-04T01:28:29.375Z,18.82
2018-07-04T01:29:29.313Z,18.82
2018-07-04T01:30:29.254Z,18.85
2018-07-04T01:31:29.196Z,18.82
2018-07-04T01:32:29.133Z,18.88
2018-07-04T01:33:29.073Z,18.85
2018-07-04T01:34:29.014Z,18.85
2018-07-04T01:35:28.952Z,18.89
2018-07-04T01:36:28.896Z,18.85
2018-07-04T01:37:28.840Z,18.85
2018-07-04T01:38:28.774Z,18.86
2018-07-04T01:39:28.735Z,18.88
2018-07-04T01:40:28.657Z,18.89
2018-07-04T01:41:28.597Z,18.83
2018-07-04T01:42:28.536Z,18.89
2018-07-04T01:43:28.471Z,18.86
2018-07-04T01:44:28.416Z,18.88
2018-07-04T01:45:28.356Z,18.86
2018-07-04T01:46:28.300Z,18.85
2018-07-04T01:47:28.236Z,18.85
2018-07-04T01:48:28.174Z,18.89
2018-07-04T01:49:28.114Z,18.89
2018-07-04T01:50:28.054Z,18.85
2018-07-04T01:51:27.994Z,18.82
2018-07-04T01:52:27.935Z,18.91
2018-07-04T01:53:27.876Z,18.83
2018-07-04T01:54:27.814Z,18.88
2018-07-04T01:55:27.753Z,18.76
2018-07-04T01:56:27.695Z,18.79
2018-07-04T01:57:27.644Z,18.75
2018-07-04T01:58:27.575Z,18.71
2018-07-04T01:59:27.515Z,18.79
2018-07-04T02:00:27.457Z,18.64
2018-07-04T02:01:27.397Z,18.66
2018-07-04T02:02:27.336Z,18.66
2018-07-04T02:03:27.274Z,18.63
2018-07-04T02:04:27.215Z,18.66
2018-07-04T02:05:27.155Z,18.58
2018-07-04T02:06:27.094Z,18.56
2018-07-04T02:07:27.035Z,18.52
2018-07-04T02:08:26.974Z,18.41
2018-07-04T02:09:26.916Z,18.46
2018-07-04T02:10:26.854Z,18.45
2018-07-04T02:11:26.793Z,18.46
2018-07-04T02:12:26.734Z,18.34
2018-07-04T02:13:26.675Z,18.46
2018-07-04T02:14:26.614Z,18.41
2018-07-04T02:15:26.556Z,18.45
2018-07-04T02:16:26.494Z,18.52
2018-07-04T02:17:26.434Z,18.38
2018-07-04T02:18:26.375Z,18.58
2018-07-04T02:19:26.314Z,18.56
2018-07-04T02:20:26.254Z,18.46
2018-07-04T02:21:26.194Z,18.42
2018-07-04T02:22:26.133Z,18.42
2018-07-04T02:23:26.076Z,18.38
2018-07-04T02:24:26.014Z,18.42
2018-07-04T02:25:25.953Z,18.38
2018-07-04T02:26:25.893Z,18.46
2018-07-04T02:27:25.834Z,18.34
2018-07-04T02:28:25.774Z,18.27
2018-07-04T02:29:25.713Z,18.27
2018-07-04T02:30:25.653Z,18.31
2018-07-04T02:31:25.592Z,18.39
2018-07-04T02:32:25.534Z,18.28
2018-07-04T02:33:25.478Z,18.18
2018-07-04T02:34:25.415Z,18.23
2018-07-04T02:35:25.351Z,18.26
2018-07-04T02:36:25.291Z,18.23
2018-07-04T02:37:25.232Z,18.20
2018-07-04T02:38:25.178Z,18.20
2018-07-04T02:39:25.116Z,18.18
2018-07-04T02:40:25.055Z,18.18
2018-07-04T02:41:24.992Z,18.20
2018-07-04T02:42:24.931Z,18.20
2018-07-04T02:43:24.870Z,18.23
2018-07-04T02:44:24.810Z,18.21
2018-07-04T02:45:24.751Z,18.23
2018-07-04T02:46:24.692Z,18.26
2018-07-04T02:47:24.631Z,18.11
2018-07-04T02:48:24.569Z,18.12
2018-07-04T02:49:24.510Z,18.15
2018-07-04T02:50:24.472Z,18.11
2018-07-04T02:51:24.395Z,18.08
2018-07-04T02:52:24.370Z,18.02
2018-07-04T02:53:24.268Z,18.01
2018-07-04T02:54:24.213Z,18.03
2018-07-04T02:55:24.143Z,18.05
2018-07-04T02:56:24.088Z,18.05
2018-07-04T02:57:24.035Z,18.06
2018-07-04T02:58:23.981Z,18.01
2018-07-04T02:59:23.904Z,18.01
2018-07-04T03:00:23.848Z,18.09
2018-07-04T03:01:23.789Z,18.06
2018-07-04T03:02:23.729Z,18.01
2018-07-04T03:03:23.665Z,18.05
2018-07-04T03:04:23.606Z,18.05
2018-07-04T03:05:23.557Z,18.02
2018-07-04T03:06:23.490Z,18.03
2018-07-04T03:07:23.425Z,17.93
2018-07-04T03:08:23.365Z,18.08
2018-07-04T03:09:23.305Z,18.08
2018-07-04T03:10:23.245Z,18.18
2018-07-04T03:11:23.182Z,18.17
2018-07-04T03:12:23.125Z,18.17
2018-07-04T03:13:23.063Z,18.15
2018-07-04T03:14:23.003Z,18.11
2018-07-04T03:15:22.944Z,18.11
2018-07-04T03:16:22.883Z,18.24
2018-07-04T03:17:22.821Z,18.21
2018-07-04T03:18:22.762Z,18.24
2018-07-04T03:19:22.702Z,18.18
2018-07-04T03:20:22.642Z,18.20
2018-07-04T03:21:22.582Z,18.18
2018-07-04T03:22:22.521Z,18.20
2018-07-04T03:23:22.460Z,18.23
2018-07-04T03:24:22.400Z,18.17
2018-07-04T03:25:22.340Z,18.13
2018-07-04T03:26:22.278Z,18.17
2018-07-04T03:27:22.218Z,18.17
2018-07-04T03:28:22.160Z,18.17
2018-07-04T03:29:22.101Z,18.26
2018-07-04T03:30:22.039Z,18.18
2018-07-04T03:31:21.977Z,18.20
2018-07-04T03:32:21.920Z,18.28
2018-07-04T03:33:21.858Z,18.23
2018-07-04T03:34:21.797Z,18.26
2018-07-04T03:35:21.738Z,18.27
2018-07-04T03:36:21.676Z,18.23
2018-07-04T03:37:21.616Z,18.23
2018-07-04T03:38:21.558Z,18.24
2018-07-04T03:39:21.497Z,18.24
2018-07-04T03:40:21.434Z,18.24
2018-07-04T03:41:21.375Z,18.26
2018-07-04T03:42:21.315Z,18.26
2018-07-04T03:43:21.254Z,18.13
2018-07-04T03:44:21.193Z,18.17
2018-07-04T03:45:21.133Z,18.20
2018-07-04T03:46:21.075Z,18.18
2018-07-04T03:47:21.013Z,18.17
2018-07-04T03:48:20.953Z,18.23
2018-07-04T03:49:20.892Z,18.18
2018-07-04T03:50:20.832Z,18.24
2018-07-04T03:51:20.771Z,18.21
2018-07-04T03:52:20.712Z,18.23
2018-07-04T03:53:20.656Z,18.27
2018-07-04T03:54:20.590Z,18.27
2018-07-04T03:55:20.529Z,18.23
2018-07-04T03:56:20.472Z,18.23
2018-07-04T03:57:20.411Z,18.26
2018-07-04T03:58:20.354Z,18.17
2018-07-04T03:59:20.287Z,18.20
2018-07-04T04:00:20.241Z,18.18
2018-07-04T04:01:20.169Z,18.24
2018-07-04T04:02:20.108Z,18.26
2018-07-04T04:03:20.048Z,18.28
2018-07-04T04:04:19.985Z,18.30
2018-07-04T04:05:19.927Z,18.27
2018-07-04T04:06:19.866Z,18.31
2018-07-04T04:07:19.849Z,18.33
2018-07-04T04:08:19.744Z,18.34
2018-07-04T04:09:19.685Z,18.34
2018-07-04T04:10:19.624Z,18.33
2018-07-04T04:11:19.564Z,18.31
2018-07-04T04:12:19.502Z,18.31
2018-07-04T04:13:19.442Z,18.30
2018-07-04T04:14:19.382Z,18.41
2018-07-04T04:15:19.321Z,18.48
2018-07-04T04:16:19.262Z,18.43
2018-07-04T04:17:19.203Z,18.43
2018-07-04T04:18:19.141Z,18.41
2018-07-04T04:19:19.082Z,18.46
2018-07-04T04:20:19.021Z,18.52
2018-07-04T04:21:18.964Z,18.56
2018-07-04T04:22:18.909Z,18.57
2018-07-04T04:23:18.842Z,18.58
2018-07-04T04:24:18.780Z,18.67
2018-07-04T04:25:18.720Z,18.71
2018-07-04T04:26:18.661Z,18.63
2018-07-04T04:27:18.599Z,18.82
2018-07-04T04:28:18.540Z,18.83
2018-07-04T04:29:18.479Z,18.78
2018-07-04T04:30:18.420Z,18.89
2018-07-04T04:31:18.360Z,18.91
2018-07-04T04:32:18.298Z,18.89
2018-07-04T04:33:18.238Z,18.91
2018-07-04T04:34:18.178Z,18.89
2018-07-04T04:35:18.117Z,18.97
2018-07-04T04:36:18.064Z,19.05
2018-07-04T04:37:18.001Z,19.04
2018-07-04T04:38:17.941Z,19.13
2018-07-04T04:39:17.877Z,19.19
2018-07-04T04:40:17.819Z,19.23
2018-07-04T04:41:17.761Z,19.23
2018-07-04T04:42:17.706Z,19.22
2018-07-04T04:43:17.637Z,19.23
2018-07-04T04:44:17.577Z,19.34
2018-07-04T04:45:17.518Z,19.35
2018-07-04T04:46:17.458Z,19.39
2018-07-04T04:47:17.398Z,19.44
2018-07-04T04:48:17.339Z,19.47
2018-07-04T04:49:17.289Z,19.54
2018-07-04T04:50:17.251Z,19.52
2018-07-04T04:51:17.175Z,19.50
2018-07-04T04:52:17.104Z,19.52
2018-07-04T04:53:17.044Z,19.59
2018-07-04T04:54:16.981Z,19.52
2018-07-04T04:55:16.924Z,19.59
2018-07-04T04:56:16.862Z,19.59
2018-07-04T04:57:16.804Z,19.63
2018-07-04T04:58:16.744Z,19.63
2018-07-04T04:59:16.685Z,19.72
2018-07-04T05:00:16.624Z,19.72
2018-07-04T05:01:16.563Z,19.77
2018-07-04T05:02:16.506Z,19.77
2018-07-04T05:03:16.444Z,19.77
2018-07-04T05:04:16.385Z,19.82
2018-07-04T05:05:16.327Z,19.74
2018-07-04T05:06:16.268Z,19.86
2018-07-04T05:07:16.211Z,19.89
2018-07-04T05:08:16.148Z,19.84
2018-07-04T05:09:16.090Z,19.97
2018-07-04T05:10:16.030Z,19.93
2018-07-04T05:11:15.969Z,19.96
2018-07-04T05:12:15.915Z,19.82
2018-07-04T05:13:15.851Z,19.99
2018-07-04T05:14:15.792Z,20.05
2018-07-04T05:15:15.733Z,20.02
2018-07-04T05:16:15.672Z,19.99
2018-07-04T05:17:15.616Z,20.02
2018-07-04T05:18:15.555Z,20.08
2018-07-04T05:19:15.495Z,20.07
2018-07-04T05:20:15.436Z,20.08
2018-07-04T05:21:15.377Z,20.08
2018-07-04T05:22:15.314Z,20.09
2018-07-04T05:23:15.258Z,20.14
2018-07-04T05:24:15.204Z,20.15
2018-07-04T05:25:15.141Z,20.19
2018-07-04T05:26:15.083Z,20.18
2018-07-04T05:27:15.024Z,20.15
2018-07-04T05:28:14.988Z,20.17
2018-07-04T05:29:14.904Z,20.22
2018-07-04T05:30:14.845Z,20.19
2018-07-04T05:31:14.787Z,20.14
2018-07-04T05:32:14.725Z,20.23
2018-07-04T05:33:14.666Z,20.19
2018-07-04T05:34:14.607Z,20.26
2018-07-04T05:35:14.586Z,20.25
2018-07-04T05:36:14.488Z,20.27
2018-07-04T05:37:14.429Z,20.23
2018-07-04T05:38:14.372Z,20.32
2018-07-04T05:39:14.313Z,20.34
2018-07-04T05:40:14.266Z,20.36
2018-07-04T05:41:14.194Z,20.26
2018-07-04T05:42:14.137Z,20.34
2018-07-04T05:43:14.075Z,20.46
2018-07-04T05:44:14.016Z,20.44
2018-07-04T05:45:13.961Z,20.53
2018-07-04T05:46:13.898Z,20.56
2018-07-04T05:47:13.840Z,20.61
2018-07-04T05:48:13.782Z,20.64
2018-07-04T05:49:13.721Z,20.73
2018-07-04T05:50:13.664Z,20.77
2018-07-04T05:51:13.605Z,20.86
2018-07-04T05:52:13.543Z,20.89
2018-07-04T05:53:13.486Z,20.86
2018-07-04T05:54:13.428Z,20.92
2018-07-04T05:55:13.367Z,21.07
2018-07-04T05:56:13.349Z,21.07
2018-07-04T05:57:13.249Z,21.07
2018-07-04T05:58:13.193Z,21.23
2018-07-04T05:59:13.133Z,21.22
2018-07-04T06:00:13.070Z,21.29
2018-07-04T06:01:13.028Z,21.30
2018-07-04T06:02:12.959Z,21.30
2018-07-04T06:03:12.901Z,21.37
2018-07-04T06:04:12.839Z,21.41
2018-07-04T06:05:12.784Z,21.41
2018-07-04T06:06:12.723Z,21.45
2018-07-04T06:07:12.663Z,21.45
2018-07-04T06:08:12.606Z,21.50
2018-07-04T06:09:12.617Z,21.56
2018-07-04T06:10:12.490Z,21.58
2018-07-04T06:11:12.429Z,21.59
2018-07-04T06:12:12.370Z,21.66
2018-07-04T06:13:12.315Z,21.63
2018-07-04T06:14:12.256Z,21.67
2018-07-04T06:15:12.196Z,21.78
2018-07-04T06:16:12.137Z,21.78
2018-07-04T06:17:12.078Z,21.90
2018-07-04T06:18:12.022Z,21.93
2018-07-04T06:19:11.971Z,21.97
2018-07-04T06:20:11.902Z,21.93
2018-07-04T06:21:11.844Z,22.00
2018-07-04T06:22:11.788Z,22.07
2018-07-04T06:23:11.728Z,22.01
2018-07-04T06:24:11.670Z,22.09
2018-07-04T06:25:11.623Z,22.25
2018-07-04T06:26:11.555Z,22.30
2018-07-04T06:27:11.501Z,22.23
2018-07-04T06:28:11.439Z,22.37
2018-07-04T06:29:11.381Z,22.37
2018-07-04T06:30:11.321Z,22.37
2018-07-04T06:31:11.328Z,22.41
2018-07-04T06:32:11.207Z,22.49
2018-07-04T06:33:11.149Z,22.48
2018-07-04T06:34:11.088Z,22.53
2018-07-04T06:35:11.062Z,22.61
2018-07-04T06:36:10.978Z,22.70
2018-07-04T06:37:10.916Z,22.74
2018-07-04T06:38:10.858Z,22.73
2018-07-04T06:39:10.801Z,22.85
2018-07-04T06:40:10.747Z,22.85
2018-07-04T06:41:10.685Z,22.96
2018-07-04T06:42:10.629Z,22.99
2018-07-04T06:43:10.567Z,23.11
2018-07-04T06:44:10.511Z,23.17
2018-07-04T06:45:10.453Z,23.17
2018-07-04T06:46:10.398Z,23.25
2018-07-04T06:47:10.338Z,23.21
2018-07-04T06:48:10.282Z,23.23
2018-07-04T06:49:10.251Z,23.26
2018-07-04T06:50:10.166Z,23.31
2018-07-04T06:51:10.109Z,23.25
2018-07-04T06:52:10.051Z,23.31
2018-07-04T06:53:09.992Z,23.18
2018-07-04T06:54:09.953Z,23.18
2018-07-04T06:55:09.879Z,23.21
2018-07-04T06:56:09.820Z,23.23
2018-07-04T06:57:09.764Z,23.22
2018-07-04T06:58:09.723Z,23.17
2018-07-04T06:59:09.650Z,23.28
2018-07-04T07:00:09.593Z,23.18
2018-07-04T07:01:09.533Z,23.23
2018-07-04T07:02:09.479Z,23.23
2018-07-04T07:03:09.419Z,23.22
2018-07-04T07:04:09.362Z,23.22
2018-07-04T07:05:09.305Z,23.21
2018-07-04T07:06:09.248Z,23.29
2018-07-04T07:07:09.190Z,23.23
2018-07-04T07:08:09.183Z,23.36
2018-07-04T07:09:09.076Z,23.31
2018-07-04T07:10:09.018Z,23.23
2018-07-04T07:11:08.960Z,23.23
2018-07-04T07:12:08.903Z,23.37
2018-07-04T07:13:08.848Z,23.29
2018-07-04T07:14:08.788Z,23.37
2018-07-04T07:15:08.733Z,23.48
2018-07-04T07:16:08.675Z,23.48
2018-07-04T07:17:08.616Z,23.48
2018-07-04T07:18:08.561Z,23.46
2018-07-04T07:19:08.503Z,23.55
2018-07-04T07:20:08.445Z,23.52
2018-07-04T07:21:08.406Z,23.59
2018-07-04T07:22:08.330Z,23.54
2018-07-04T07:23:08.277Z,23.69
2018-07-04T07:24:08.217Z,23.71
2018-07-04T07:25:08.160Z,23.70
2018-07-04T07:26:08.105Z,23.70
2018-07-04T07:27:08.044Z,23.71
2018-07-04T07:28:07.988Z,23.70
2018-07-04T07:29:08.174Z,23.79
2018-07-04T07:30:07.874Z,23.85
2018-07-04T07:31:07.816Z,23.92
2018-07-04T07:32:07.800Z,24.01
2018-07-04T07:33:07.703Z,24.03
2018-07-04T07:34:07.671Z,24.08
2018-07-04T07:35:07.590Z,24.15
2018-07-04T07:36:07.533Z,24.11
2018-07-04T07:37:07.472Z,24.19
2018-07-04T07:38:07.419Z,24.25
2018-07-04T07:39:07.361Z,24.23
2018-07-04T07:40:07.308Z,24.34
2018-07-04T07:41:07.247Z,24.38
2018-07-04T07:42:07.192Z,24.48
2018-07-04T07:43:07.132Z,24.52
2018-07-04T07:44:07.081Z,24.52
2018-07-04T07:45:07.021Z,24.63
2018-07-04T07:46:06.964Z,24.65
2018-07-04T07:47:06.906Z,24.79
2018-07-04T07:48:06.851Z,24.84
2018-07-04T07:49:06.796Z,24.86
2018-07-04T07:50:06.739Z,24.89
2018-07-04T07:51:06.683Z,25.00
2018-07-04T07:52:06.624Z,25.03
2018-07-04T07:53:06.569Z,24.99
2018-07-04T07:54:06.548Z,25.11
2018-07-04T07:55:06.454Z,25.16
2018-07-04T07:56:06.398Z,25.21
2018-07-04T07:57:06.344Z,25.31
2018-07-04T07:58:06.289Z,25.28
2018-07-04T07:59:06.234Z,25.38
2018-07-04T08:00:06.175Z,25.43
2018-07-04T08:01:06.121Z,25.43
2018-07-04T08:02:06.062Z,25.46
2018-07-04T08:03:06.005Z,25.38
2018-07-04T08:04:05.956Z,25.49
2018-07-04T08:05:05.894Z,25.55
2018-07-04T08:06:05.840Z,25.49
2018-07-04T08:07:05.783Z,25.46
2018-07-04T08:08:05.727Z,25.40
2018-07-04T08:09:05.676Z,25.38
2018-07-04T08:10:05.620Z,25.41
2018-07-04T08:11:05.566Z,25.41
2018-07-04T08:12:05.504Z,25.37
2018-07-04T08:13:05.449Z,25.31
2018-07-04T08:14:05.390Z,25.28
2018-07-04T08:15:05.336Z,25.28
2018-07-04T08:16:05.283Z,25.15
2018-07-04T08:17:05.221Z,25.15
2018-07-04T08:18:05.170Z,25.14
2018-07-04T08:19:05.113Z,25.09
2018-07-04T08:20:05.056Z,25.03
2018-07-04T08:21:05.002Z,25.06
2018-07-04T08:22:04.942Z,24.85
2018-07-04T08:23:04.885Z,24.86
2018-07-04T08:24:04.833Z,24.74
2018-07-04T08:25:04.775Z,24.76
2018-07-04T08:26:04.723Z,24.75
2018-07-04T08:27:04.662Z,24.75
2018-07-04T08:28:04.608Z,24.74
2018-07-04T08:29:04.551Z,24.74
2018-07-04T08:30:04.495Z,24.70
2018-07-04T08:31:04.438Z,24.79
2018-07-04T08:32:04.382Z,24.75
2018-07-04T08:33:04.329Z,24.75
2018-07-04T08:34:04.275Z,24.74
2018-07-04T08:35:04.220Z,24.75
2018-07-04T08:36:04.157Z,24.76
2018-07-04T08:37:04.101Z,24.79
2018-07-04T08:38:04.047Z,24.76
2018-07-04T08:39:03.993Z,24.65
2018-07-04T08:40:03.936Z,24.66
2018-07-04T08:41:03.876Z,24.74
2018-07-04T08:42:03.822Z,24.78
2018-07-04T08:43:03.764Z,24.78
2018-07-04T08:44:03.709Z,24.91
2018-07-04T08:45:03.660Z,24.97
2018-07-04T08:46:03.597Z,25.16
2018-07-04T08:47:03.540Z,25.15
2018-07-04T08:48:03.484Z,25.30
2018-07-04T08:49:03.425Z,25.37
2018-07-04T08:50:03.381Z,25.37
2018-07-04T08:51:03.319Z,25.38
2018-07-04T08:52:03.259Z,25.38
2018-07-04T08:53:03.210Z,25.36
2018-07-04T08:54:03.149Z,25.53
2018-07-04T08:55:03.092Z,25.46
2018-07-04T08:56:03.036Z,25.59
2018-07-04T08:57:02.980Z,25.55
2018-07-04T08:58:02.924Z,25.59
2018-07-04T08:59:02.868Z,25.75
2018-07-04T09:00:02.814Z,25.66
2018-07-04T09:01:02.760Z,25.73
2018-07-04T09:02:02.701Z,25.59
2018-07-04T09:03:02.647Z,25.61
2018-07-04T09:04:02.590Z,25.59
2018-07-04T09:05:02.533Z,25.53
2018-07-04T09:06:02.479Z,25.56
2018-07-04T09:07:02.426Z,25.64
2018-07-04T09:08:02.369Z,25.66
2018-07-04T09:09:02.315Z,25.71
2018-07-04T09:10:02.258Z,25.77
2018-07-04T09:11:02.201Z,25.73
2018-07-04T09:12:02.146Z,25.78
2018-07-04T09:13:02.094Z,25.73
2018-07-04T09:14:02.035Z,25.85
2018-07-04T09:15:01.977Z,25.81
2018-07-04T09:16:01.922Z,25.93
2018-07-04T09:17:01.867Z,26.00
2018-07-04T09:18:01.811Z,26.11
2018-07-04T09:19:01.755Z,26.20
2018-07-04T09:20:01.844Z,26.45
2018-07-04T09:21:01.877Z,26.57
2018-07-04T09:22:01.591Z,26.57
2018-07-04T09:23:01.532Z,26.61
2018-07-04T09:24:01.480Z,26.64
2018-07-04T09:25:01.424Z,26.57
2018-07-04T09:26:01.370Z,26.52
2018-07-04T09:27:01.318Z,26.56
2018-07-04T09:28:01.259Z,26.82
2018-07-04T09:29:01.204Z,27.04
2018-07-04T09:30:01.150Z,27.31
2018-07-04T09:31:01.094Z,27.50
2018-07-04T09:32:01.040Z,27.72
2018-07-04T09:33:00.993Z,28.20
2018-07-04T09:34:00.934Z,28.35
2018-07-04T09:35:00.874Z,29.09
2018-07-04T09:36:00.821Z,29.43
2018-07-04T09:37:00.768Z,30.15
2018-07-04T09:38:00.715Z,30.45
2018-07-04T09:39:00.666Z,30.68
2018-07-04T09:40:00.604Z,30.68
2018-07-04T09:41:00.552Z,30.97
2018-07-04T09:42:00.500Z,31.02
2018-07-04T09:43:00.450Z,31.34
2018-07-04T09:44:00.395Z,31.22
2018-07-04T09:45:00.376Z,31.19
2018-07-04T09:46:00.288Z,31.22
2018-07-04T09:47:00.236Z,30.77
2018-07-04T09:48:00.186Z,30.53
2018-07-04T09:49:00.132Z,30.32
2018-07-04T09:50:00.081Z,30.14
2018-07-04T09:51:00.053Z,30.17
2018-07-04T09:51:59.977Z,30.02
2018-07-04T09:52:59.925Z,30.17
2018-07-04T09:53:59.882Z,30.20
2018-07-04T09:54:59.821Z,30.51
2018-07-04T09:55:59.771Z,30.70
2018-07-04T09:56:59.717Z,31.08
2018-07-04T09:57:59.668Z,31.26
2018-07-04T09:58:59.614Z,31.12
2018-07-04T09:59:59.564Z,30.68
2018-07-04T10:00:59.514Z,30.30
2018-07-04T10:01:59.461Z,30.28
2018-07-04T10:02:59.408Z,30.02
2018-07-04T10:03:59.359Z,29.87
2018-07-04T10:04:59.308Z,29.80
2018-07-04T10:05:59.257Z,30.43
2018-07-04T10:06:59.206Z,30.85
2018-07-04T10:07:59.151Z,30.71
2018-07-04T10:08:59.100Z,31.04
2018-07-04T10:09:59.061Z,30.77
2018-07-04T10:10:58.999Z,30.49
2018-07-04T10:11:58.947Z,30.18
2018-07-04T10:12:58.894Z,30.08
2018-07-04T10:13:58.846Z,29.87
2018-07-04T10:14:58.793Z,29.74
2018-07-04T10:15:58.741Z,30.07
2018-07-04T10:16:58.693Z,30.17
2018-07-04T10:17:58.638Z,30.07
2018-07-04T10:18:58.589Z,29.68
2018-07-04T10:19:58.536Z,29.41
2018-07-04T10:20:58.484Z,29.33
2018-07-04T10:21:58.432Z,29.37
2018-07-04T10:22:58.379Z,29.68
2018-07-04T10:23:58.327Z,30.21
2018-07-04T10:24:58.275Z,30.39
2018-07-04T10:25:58.225Z,30.82
2018-07-04T10:26:58.173Z,31.22
2018-07-04T10:27:58.120Z,31.70
2018-07-04T10:28:58.069Z,31.64
2018-07-04T10:29:58.019Z,32.02
2018-07-04T10:30:58.100Z,32.26
2018-07-04T10:31:57.913Z,32.42
2018-07-04T10:32:57.862Z,32.55
2018-07-04T10:33:57.811Z,32.57
2018-07-04T10:34:57.764Z,32.65
2018-07-04T10:35:57.706Z,32.51
2018-07-04T10:36:57.658Z,32.38
2018-07-04T10:37:57.606Z,32.23
2018-07-04T10:38:57.557Z,32.36
2018-07-04T10:39:57.505Z,32.41
2018-07-04T10:40:57.454Z,32.24
2018-07-04T10:41:57.404Z,32.01
2018-07-04T10:42:57.352Z,31.86
2018-07-04T10:43:57.303Z,31.89
2018-07-04T10:44:57.252Z,31.64
2018-07-04T10:45:57.203Z,31.44
2018-07-04T10:46:57.152Z,31.24
2018-07-04T10:47:57.099Z,30.86
2018-07-04T10:48:57.049Z,31.11
2018-07-04T10:49:57.011Z,31.20
2018-07-04T10:50:56.997Z,31.11
2018-07-04T10:51:56.897Z,31.17
2018-07-04T10:52:56.846Z,31.01
2018-07-04T10:53:56.794Z,31.10
2018-07-04T10:54:56.744Z,31.38
2018-07-04T10:55:56.693Z,31.49
2018-07-04T10:56:56.639Z,31.60
2018-07-04T10:57:56.591Z,31.67
2018-07-04T10:58:56.541Z,31.76
2018-07-04T10:59:56.488Z,31.67
2018-07-04T11:00:56.438Z,31.99
2018-07-04T11:01:56.387Z,32.20
2018-07-04T11:02:56.340Z,32.41
2018-07-04T11:03:56.283Z,32.57
2018-07-04T11:04:56.234Z,32.90
2018-07-04T11:05:56.185Z,33.29
2018-07-04T11:06:56.135Z,33.41
2018-07-04T11:07:56.082Z,33.58
2018-07-04T11:08:56.033Z,33.36
2018-07-04T11:09:55.980Z,33.04
2018-07-04T11:10:55.931Z,33.03
2018-07-04T11:11:55.879Z,32.55
2018-07-04T11:12:55.830Z,32.33
2018-07-04T11:13:55.778Z,31.84
2018-07-04T11:14:55.728Z,31.46
2018-07-04T11:15:55.678Z,31.37
2018-07-04T11:16:55.651Z,30.99
2018-07-04T11:17:55.578Z,30.64
2018-07-04T11:18:55.527Z,30.89
2018-07-04T11:19:55.475Z,31.07
2018-07-04T11:20:55.426Z,30.99
2018-07-04T11:21:55.393Z,30.95
2018-07-04T11:22:55.321Z,30.93
2018-07-04T11:23:55.272Z,30.92
2018-07-04T11:24:55.221Z,30.78
2018-07-04T11:25:55.171Z,30.88
2018-07-04T11:26:55.117Z,30.78
2018-07-04T11:27:55.066Z,30.74
2018-07-04T11:28:55.009Z,30.82
2018-07-04T11:29:54.962Z,30.73
2018-07-04T11:30:54.908Z,30.74
2018-07-04T11:31:54.857Z,30.70
2018-07-04T11:32:54.803Z,30.77
2018-07-04T11:33:54.756Z,30.78
2018-07-04T11:34:54.700Z,30.92
2018-07-04T11:35:54.650Z,31.08
2018-07-04T11:36:54.595Z,31.08
2018-07-04T11:37:54.543Z,31.10
2018-07-04T11:38:54.495Z,31.27
2018-07-04T11:39:54.441Z,31.24
2018-07-04T11:40:54.388Z,31.10
2018-07-04T11:41:54.338Z,31.05
2018-07-04T11:42:54.277Z,30.90
2018-07-04T11:43:54.227Z,30.85
2018-07-04T11:44:54.172Z,30.92
2018-07-04T11:45:54.121Z,30.90
2018-07-04T11:46:54.068Z,30.99
2018-07-04T11:47:54.018Z,30.80
2018-07-04T11:48:53.961Z,30.70
2018-07-04T11:49:53.911Z,30.46
2018-07-04T11:50:53.857Z,30.26
2018-07-04T11:51:53.803Z,30.07
2018-07-04T11:52:53.756Z,29.80
2018-07-04T11:53:53.700Z,29.55
2018-07-04T11:54:53.652Z,29.27
2018-07-04T11:55:53.592Z,29.33
2018-07-04T11:56:53.542Z,29.44
2018-07-04T11:57:53.484Z,29.44
2018-07-04T11:58:53.429Z,29.62
2018-07-04T11:59:53.374Z,29.55
2018-07-04T12:00:53.325Z,29.68
2018-07-04T12:01:53.298Z,29.77
2018-07-04T12:02:53.214Z,29.95
2018-07-04T12:03:53.161Z,30.11
2018-07-04T12:04:53.114Z,30.17
2018-07-04T12:05:53.055Z,30.26
2018-07-04T12:06:53.001Z,30.40
2018-07-04T12:07:52.947Z,30.62
2018-07-04T12:08:52.894Z,30.67
2018-07-04T12:09:52.839Z,30.67
2018-07-04T12:10:52.834Z,30.70
2018-07-04T12:11:52.734Z,30.78
2018-07-04T12:12:52.682Z,30.78
2018-07-04T12:13:52.625Z,30.64
2018-07-04T12:14:52.571Z,30.58
2018-07-04T12:15:52.519Z,30.56
2018-07-04T12:16:52.466Z,30.46
2018-07-04T12:17:52.411Z,30.51
2018-07-04T12:18:52.358Z,30.46
2018-07-04T12:19:52.303Z,30.29
2018-07-04T12:20:52.268Z,30.24
2018-07-04T12:21:52.199Z,30.26
2018-07-04T12:22:52.143Z,30.20
2018-07-04T12:23:52.091Z,30.07
2018-07-04T12:24:52.036Z,29.87
2018-07-04T12:25:51.981Z,29.68
2018-07-04T12:26:51.973Z,29.55
2018-07-04T12:27:51.876Z,29.47
2018-07-04T12:28:51.826Z,29.24
2018-07-04T12:29:51.767Z,29.04
2018-07-04T12:30:51.712Z,28.93
2018-07-04T12:31:51.658Z,28.87
2018-07-04T12:32:51.605Z,28.65
2018-07-04T12:33:51.549Z,28.47
2018-07-04T12:34:51.497Z,28.27
2018-07-04T12:35:51.444Z,28.06
2018-07-04T12:36:51.390Z,27.79
2018-07-04T12:37:51.337Z,27.52
2018-07-04T12:38:51.277Z,27.32
2018-07-04T12:39:51.227Z,27.04
2018-07-04T12:40:51.170Z,26.95
2018-07-04T12:41:51.116Z,26.75
2018-07-04T12:42:51.063Z,26.52
2018-07-04T12:43:51.098Z,26.31
2018-07-04T12:44:50.950Z,26.23
2018-07-04T12:45:50.897Z,26.12
2018-07-04T12:46:50.842Z,26.04
2018-07-04T12:47:50.786Z,26.01
2018-07-04T12:48:50.732Z,25.92
2018-07-04T12:49:50.677Z,25.85
2018-07-04T12:50:50.620Z,25.92
2018-07-04T12:51:50.565Z,25.85